sensor_id;sensor_type;location;lat;lon;timestamp;P1;durP1;ratioP1;P2;durP2;ratioP2
67090;SDS011;54007;55.818;49.058;2023-06-22T06:52:42;7.62;;;3.85;;
67090;SDS011;54007;55.818;49.058;2023-06-22T06:55:13;10.72;;;4.30;;
67090;SDS011;54007;55.818;49.058;2023-06-22T06:57:40;9.90;;;3.87;;
67090;SDS011;54007;55.818;49.058;2023-06-22T07:00:06;7.97;;;3.30;;
67090;SDS011;54007;55.818;49.058;2023-06-22T07:02:32;11.08;;;4.00;;
67090;SDS011;54007;55.818;49.058;2023-06-22T07:04:58;6.00;;;2.90;;
67090;SDS011;54007;55.818;49.058;2023-06-22T07:07:24;6.25;;;2.90;;
67090;SDS011;54007;55.818;49.058;2023-06-22T07:09:49;6.42;;;2.83;;
67090;SDS011;54007;55.818;49.058;2023-06-22T07:12:15;6.20;;;3.00;;
67090;SDS011;54007;55.818;49.058;2023-06-22T07:14:41;8.93;;;3.05;;
67090;SDS011;54007;55.818;49.058;2023-06-22T07:17:07;7.12;;;3.47;;
67090;SDS011;54007;55.818;49.058;2023-06-22T07:19:34;8.50;;;3.00;;
67090;SDS011;54007;55.818;49.058;2023-06-22T07:22:00;9.75;;;3.12;;
67090;SDS011;54007;55.818;49.058;2023-06-22T07:24:26;7.37;;;3.17;;
67090;SDS011;54007;55.818;49.058;2023-06-22T07:26:53;9.17;;;2.90;;
67090;SDS011;54007;55.818;49.058;2023-06-22T07:29:19;7.50;;;3.12;;
67090;SDS011;54007;55.818;49.058;2023-06-22T07:31:45;6.47;;;3.30;;
67090;SDS011;54007;55.818;49.058;2023-06-22T07:34:10;10.33;;;3.63;;
67090;SDS011;54007;55.818;49.058;2023-06-22T07:36:36;7.10;;;3.37;;
67090;SDS011;54007;55.818;49.058;2023-06-22T07:39:02;7.93;;;3.20;;
67090;SDS011;54007;55.818;49.058;2023-06-22T07:41:28;8.08;;;4.00;;
67090;SDS011;54007;55.818;49.058;2023-06-22T07:43:54;7.80;;;4.10;;
67090;SDS011;54007;55.818;49.058;2023-06-22T07:46:20;12.13;;;4.23;;
67090;SDS011;54007;55.818;49.058;2023-06-22T07:48:45;13.28;;;4.60;;
67090;SDS011;54007;55.818;49.058;2023-06-22T07:51:11;11.25;;;4.58;;
67090;SDS011;54007;55.818;49.058;2023-06-22T07:53:43;8.13;;;4.50;;
67090;SDS011;54007;55.818;49.058;2023-06-22T07:56:06;9.48;;;3.85;;
67090;SDS011;54007;55.818;49.058;2023-06-22T07:58:32;8.18;;;4.00;;
67090;SDS011;54007;55.818;49.058;2023-06-22T08:00:57;7.55;;;4.28;;
67090;SDS011;54007;55.818;49.058;2023-06-22T08:03:23;8.23;;;4.28;;
67090;SDS011;54007;55.818;49.058;2023-06-22T08:05:49;7.70;;;4.00;;
67090;SDS011;54007;55.818;49.058;2023-06-22T08:08:15;8.15;;;4.00;;
67090;SDS011;54007;55.818;49.058;2023-06-22T08:10:53;9.83;;;4.30;;
67090;SDS011;54007;55.818;49.058;2023-06-22T08:13:17;7.70;;;3.77;;
67090;SDS011;54007;55.818;49.058;2023-06-22T08:15:43;8.05;;;4.00;;
67090;SDS011;54007;55.818;49.058;2023-06-22T08:18:09;8.15;;;4.00;;
67090;SDS011;54007;55.818;49.058;2023-06-22T08:20:35;7.90;;;3.87;;
67090;SDS011;54007;55.818;49.058;2023-06-22T08:23:01;10.75;;;4.22;;
67090;SDS011;54007;55.818;49.058;2023-06-22T08:25:26;7.10;;;4.28;;
67090;SDS011;54007;55.818;49.058;2023-06-22T08:27:52;8.73;;;4.47;;
67090;SDS011;54007;55.818;49.058;2023-06-22T08:30:18;9.35;;;4.85;;
67090;SDS011;54007;55.818;49.058;2023-06-22T08:32:44;10.35;;;4.80;;
67090;SDS011;54007;55.818;49.058;2023-06-22T08:35:10;11.90;;;4.60;;
67090;SDS011;54007;55.818;49.058;2023-06-22T08:37:36;10.38;;;5.08;;
67090;SDS011;54007;55.818;49.058;2023-06-22T08:40:02;9.20;;;4.77;;
67090;SDS011;54007;55.818;49.058;2023-06-22T08:42:27;9.88;;;5.25;;
67090;SDS011;54007;55.818;49.058;2023-06-22T08:44:53;9.10;;;5.15;;
67090;SDS011;54007;55.818;49.058;2023-06-22T08:47:19;12.80;;;6.13;;
67090;SDS011;54007;55.818;49.058;2023-06-22T08:49:45;9.20;;;4.67;;
67090;SDS011;54007;55.818;49.058;2023-06-22T08:52:12;9.33;;;4.83;;
67090;SDS011;54007;55.818;49.058;2023-06-22T08:54:38;10.82;;;4.78;;
67090;SDS011;54007;55.818;49.058;2023-06-22T08:57:04;9.90;;;4.78;;
67090;SDS011;54007;55.818;49.058;2023-06-22T08:59:30;11.73;;;5.33;;
67090;SDS011;54007;55.818;49.058;2023-06-22T09:01:58;12.23;;;5.10;;
67090;SDS011;54007;55.818;49.058;2023-06-22T09:04:21;9.28;;;4.70;;
67090;SDS011;54007;55.818;49.058;2023-06-22T09:06:50;9.18;;;4.67;;
67090;SDS011;54007;55.818;49.058;2023-06-22T09:09:16;8.87;;;4.60;;
67090;SDS011;54007;55.818;49.058;2023-06-22T09:11:42;8.68;;;4.60;;
67090;SDS011;54007;55.818;49.058;2023-06-22T09:14:08;8.03;;;4.83;;
67090;SDS011;54007;55.818;49.058;2023-06-22T09:16:34;9.63;;;5.25;;
67090;SDS011;54007;55.818;49.058;2023-06-22T09:18:59;9.45;;;4.75;;
67090;SDS011;54007;55.818;49.058;2023-06-22T09:21:25;9.07;;;4.93;;
67090;SDS011;54007;55.818;49.058;2023-06-22T09:23:51;11.30;;;5.78;;
67090;SDS011;54007;55.818;49.058;2023-06-22T09:26:18;9.08;;;4.67;;
67090;SDS011;54007;55.818;49.058;2023-06-22T09:28:47;7.63;;;4.60;;
67090;SDS011;54007;55.818;49.058;2023-06-22T10:22:58;6.20;;;3.52;;
67090;SDS011;54007;55.818;49.058;2023-06-22T10:25:24;8.35;;;4.10;;
67090;SDS011;54007;55.818;49.058;2023-06-22T10:27:50;6.87;;;3.90;;
67090;SDS011;54007;55.818;49.058;2023-06-22T10:30:16;9.15;;;3.98;;
67090;SDS011;54007;55.818;49.058;2023-06-22T10:32:42;7.62;;;4.10;;
67090;SDS011;54007;55.818;49.058;2023-06-22T10:35:08;8.43;;;3.53;;
67090;SDS011;54007;55.818;49.058;2023-06-22T10:37:33;7.60;;;3.92;;
67090;SDS011;54007;55.818;49.058;2023-06-22T10:39:59;9.70;;;4.42;;
67090;SDS011;54007;55.818;49.058;2023-06-22T10:42:25;8.50;;;4.63;;
67090;SDS011;54007;55.818;49.058;2023-06-22T10:44:51;6.33;;;3.70;;
67090;SDS011;54007;55.818;49.058;2023-06-22T10:47:17;6.53;;;4.00;;
67090;SDS011;54007;55.818;49.058;2023-06-22T10:49:49;9.23;;;4.20;;
67090;SDS011;54007;55.818;49.058;2023-06-22T10:52:15;7.22;;;4.00;;
67090;SDS011;54007;55.818;49.058;2023-06-22T10:54:41;7.97;;;4.05;;
67090;SDS011;54007;55.818;49.058;2023-06-22T10:57:07;8.73;;;4.43;;
67090;SDS011;54007;55.818;49.058;2023-06-22T10:59:33;6.25;;;3.58;;
67090;SDS011;54007;55.818;49.058;2023-06-22T11:01:58;8.07;;;3.83;;
67090;SDS011;54007;55.818;49.058;2023-06-22T11:04:24;6.03;;;3.72;;
67090;SDS011;54007;55.818;49.058;2023-06-22T11:06:50;6.85;;;3.70;;
67090;SDS011;54007;55.818;49.058;2023-06-22T11:09:16;7.17;;;3.70;;
67090;SDS011;54007;55.818;49.058;2023-06-22T11:11:42;9.30;;;4.42;;
67090;SDS011;54007;55.818;49.058;2023-06-22T11:14:08;8.95;;;3.95;;
67090;SDS011;54007;55.818;49.058;2023-06-22T11:16:34;10.17;;;4.50;;
67090;SDS011;54007;55.818;49.058;2023-06-22T11:19:00;11.10;;;3.95;;
67090;SDS011;54007;55.818;49.058;2023-06-22T11:21:26;6.80;;;3.67;;
67090;SDS011;54007;55.818;49.058;2023-06-22T11:23:51;8.08;;;4.03;;
67090;SDS011;54007;55.818;49.058;2023-06-22T11:26:17;8.73;;;3.90;;
67090;SDS011;54007;55.818;49.058;2023-06-22T11:28:43;6.87;;;4.03;;
67090;SDS011;54007;55.818;49.058;2023-06-22T11:31:09;8.73;;;4.45;;
67090;SDS011;54007;55.818;49.058;2023-06-22T11:33:35;10.20;;;4.07;;
67090;SDS011;54007;55.818;49.058;2023-06-22T11:36:01;8.98;;;4.12;;
67090;SDS011;54007;55.818;49.058;2023-06-22T11:38:26;8.65;;;3.70;;
67090;SDS011;54007;55.818;49.058;2023-06-22T11:40:52;13.90;;;6.03;;
67090;SDS011;54007;55.818;49.058;2023-06-22T11:43:18;8.35;;;3.58;;
67090;SDS011;54007;55.818;49.058;2023-06-22T11:45:44;7.93;;;3.87;;
67090;SDS011;54007;55.818;49.058;2023-06-22T11:48:10;8.95;;;4.15;;
67090;SDS011;54007;55.818;49.058;2023-06-22T11:50:36;10.25;;;4.30;;
67090;SDS011;54007;55.818;49.058;2023-06-22T11:53:02;10.93;;;4.13;;
67090;SDS011;54007;55.818;49.058;2023-06-22T11:55:27;9.35;;;4.50;;
67090;SDS011;54007;55.818;49.058;2023-06-22T11:57:57;13.65;;;5.55;;
67090;SDS011;54007;55.818;49.058;2023-06-22T12:00:19;12.33;;;5.33;;
67090;SDS011;54007;55.818;49.058;2023-06-22T12:02:49;9.08;;;4.70;;
67090;SDS011;54007;55.818;49.058;2023-06-22T12:05:15;10.48;;;4.70;;
67090;SDS011;54007;55.818;49.058;2023-06-22T12:07:48;10.33;;;5.23;;
67090;SDS011;54007;55.818;49.058;2023-06-22T12:10:13;11.80;;;5.03;;
67090;SDS011;54007;55.818;49.058;2023-06-22T12:12:39;10.98;;;5.05;;
67090;SDS011;54007;55.818;49.058;2023-06-22T12:15:05;10.87;;;5.00;;
67090;SDS011;54007;55.818;49.058;2023-06-22T12:17:31;9.90;;;5.00;;
67090;SDS011;54007;55.818;49.058;2023-06-22T12:19:57;12.43;;;5.25;;
67090;SDS011;54007;55.818;49.058;2023-06-22T12:22:22;13.40;;;5.10;;
67090;SDS011;54007;55.818;49.058;2023-06-22T12:24:51;10.00;;;5.15;;
67090;SDS011;54007;55.818;49.058;2023-06-22T12:27:14;12.63;;;5.15;;
67090;SDS011;54007;55.818;49.058;2023-06-22T12:29:40;12.00;;;4.67;;
67090;SDS011;54007;55.818;49.058;2023-06-22T12:32:06;9.38;;;4.55;;
67090;SDS011;54007;55.818;49.058;2023-06-22T12:34:32;9.63;;;4.40;;
67090;SDS011;54007;55.818;49.058;2023-06-22T12:36:58;11.08;;;4.37;;
67090;SDS011;54007;55.818;49.058;2023-06-22T12:39:23;11.12;;;4.50;;
67090;SDS011;54007;55.818;49.058;2023-06-22T12:41:49;10.07;;;4.13;;
67090;SDS011;54007;55.818;49.058;2023-06-22T12:44:15;9.65;;;4.50;;
67090;SDS011;54007;55.818;49.058;2023-06-22T12:46:41;13.70;;;7.25;;
67090;SDS011;54007;55.818;49.058;2023-06-22T12:49:07;9.07;;;4.50;;
67090;SDS011;54007;55.818;49.058;2023-06-22T12:51:33;8.25;;;4.20;;
67090;SDS011;54007;55.818;49.058;2023-06-22T12:53:59;8.63;;;4.28;;
67090;SDS011;54007;55.818;49.058;2023-06-22T12:56:25;10.20;;;4.47;;
67090;SDS011;54007;55.818;49.058;2023-06-22T12:58:50;9.85;;;4.20;;
67090;SDS011;54007;55.818;49.058;2023-06-22T13:01:16;8.93;;;4.30;;
67090;SDS011;54007;55.818;49.058;2023-06-22T13:03:42;10.37;;;4.67;;
67090;SDS011;54007;55.818;49.058;2023-06-22T13:06:08;9.78;;;3.98;;
67090;SDS011;54007;55.818;49.058;2023-06-22T13:08:34;9.17;;;4.20;;
67090;SDS011;54007;55.818;49.058;2023-06-22T13:11:00;10.55;;;4.10;;
67090;SDS011;54007;55.818;49.058;2023-06-22T13:13:25;9.98;;;4.70;;
67090;SDS011;54007;55.818;49.058;2023-06-22T13:15:51;9.80;;;4.33;;
67090;SDS011;54007;55.818;49.058;2023-06-22T13:18:17;10.40;;;4.40;;
67090;SDS011;54007;55.818;49.058;2023-06-22T13:20:47;10.07;;;4.63;;
67090;SDS011;54007;55.818;49.058;2023-06-22T13:23:13;10.55;;;4.70;;
67090;SDS011;54007;55.818;49.058;2023-06-22T13:25:45;10.13;;;4.47;;
67090;SDS011;54007;55.818;49.058;2023-06-22T13:28:12;9.73;;;4.15;;
67090;SDS011;54007;55.818;49.058;2023-06-22T13:30:38;7.83;;;4.20;;
67090;SDS011;54007;55.818;49.058;2023-06-22T13:33:03;9.68;;;4.00;;
67090;SDS011;54007;55.818;49.058;2023-06-22T13:35:29;9.85;;;3.80;;
67090;SDS011;54007;55.818;49.058;2023-06-22T13:37:55;10.43;;;3.90;;
67090;SDS011;54007;55.818;49.058;2023-06-22T13:40:21;10.75;;;3.90;;
67090;SDS011;54007;55.818;49.058;2023-06-22T13:42:47;8.08;;;3.95;;
67090;SDS011;54007;55.818;49.058;2023-06-22T13:45:13;10.55;;;3.85;;
67090;SDS011;54007;55.818;49.058;2023-06-22T13:47:39;11.50;;;3.77;;
67090;SDS011;54007;55.818;49.058;2023-06-22T13:50:05;13.90;;;4.00;;
67090;SDS011;54007;55.818;49.058;2023-06-22T13:52:31;14.77;;;4.07;;
67090;SDS011;54007;55.818;49.058;2023-06-22T13:54:57;13.00;;;4.43;;
67090;SDS011;54007;55.818;49.058;2023-06-22T13:57:22;13.25;;;4.10;;
67090;SDS011;54007;55.818;49.058;2023-06-22T13:59:48;9.85;;;4.00;;
67090;SDS011;54007;55.818;49.058;2023-06-22T14:02:14;6.27;;;3.30;;
67090;SDS011;54007;55.818;49.058;2023-06-22T14:04:40;7.55;;;3.30;;
67090;SDS011;54007;55.818;49.058;2023-06-22T14:07:06;7.65;;;3.40;;
67090;SDS011;54007;55.818;49.058;2023-06-22T14:09:32;8.93;;;3.30;;
67090;SDS011;54007;55.818;49.058;2023-06-22T14:12:01;7.75;;;3.20;;
67090;SDS011;54007;55.818;49.058;2023-06-22T14:14:24;11.43;;;3.62;;
67090;SDS011;54007;55.818;49.058;2023-06-22T14:16:49;8.83;;;3.10;;
67090;SDS011;54007;55.818;49.058;2023-06-22T14:19:19;6.55;;;2.95;;
67090;SDS011;54007;55.818;49.058;2023-06-22T14:21:44;6.90;;;3.27;;
67090;SDS011;54007;55.818;49.058;2023-06-22T14:24:10;14.37;;;3.40;;
67090;SDS011;54007;55.818;49.058;2023-06-22T14:26:36;7.92;;;3.67;;
67090;SDS011;54007;55.818;49.058;2023-06-22T14:29:02;6.03;;;3.17;;
67090;SDS011;54007;55.818;49.058;2023-06-22T14:31:28;13.40;;;3.92;;
67090;SDS011;54007;55.818;49.058;2023-06-22T14:33:54;7.97;;;3.60;;
67090;SDS011;54007;55.818;49.058;2023-06-22T14:36:19;8.40;;;3.15;;
67090;SDS011;54007;55.818;49.058;2023-06-22T14:38:49;11.48;;;3.95;;
67090;SDS011;54007;55.818;49.058;2023-06-22T14:41:15;8.78;;;3.65;;
67090;SDS011;54007;55.818;49.058;2023-06-22T14:43:47;12.00;;;3.67;;
67090;SDS011;54007;55.818;49.058;2023-06-22T14:46:17;7.65;;;3.35;;
67090;SDS011;54007;55.818;49.058;2023-06-22T14:48:42;11.08;;;3.70;;
67090;SDS011;54007;55.818;49.058;2023-06-22T14:51:08;9.20;;;3.50;;
67090;SDS011;54007;55.818;49.058;2023-06-22T14:53:33;7.60;;;3.15;;
67090;SDS011;54007;55.818;49.058;2023-06-22T14:55:59;7.92;;;3.08;;
67090;SDS011;54007;55.818;49.058;2023-06-22T14:58:25;6.70;;;3.08;;
67090;SDS011;54007;55.818;49.058;2023-06-22T15:00:51;6.70;;;3.20;;
67090;SDS011;54007;55.818;49.058;2023-06-22T15:03:17;8.80;;;3.20;;
67090;SDS011;54007;55.818;49.058;2023-06-22T15:05:43;9.18;;;3.50;;
67090;SDS011;54007;55.818;49.058;2023-06-22T15:08:08;8.90;;;3.52;;
67090;SDS011;54007;55.818;49.058;2023-06-22T15:10:34;11.90;;;4.40;;
67090;SDS011;54007;55.818;49.058;2023-06-22T15:13:00;10.98;;;3.90;;
67090;SDS011;54007;55.818;49.058;2023-06-22T15:15:26;14.13;;;4.87;;
67090;SDS011;54007;55.818;49.058;2023-06-22T15:17:52;10.75;;;4.30;;
67090;SDS011;54007;55.818;49.058;2023-06-22T15:20:18;17.30;;;6.85;;
67090;SDS011;54007;55.818;49.058;2023-06-22T15:22:43;16.45;;;7.37;;
67090;SDS011;54007;55.818;49.058;2023-06-22T15:25:09;19.98;;;7.55;;
67090;SDS011;54007;55.818;49.058;2023-06-22T15:27:35;13.47;;;5.23;;
67090;SDS011;54007;55.818;49.058;2023-06-22T15:30:01;14.53;;;5.62;;
67090;SDS011;54007;55.818;49.058;2023-06-22T15:32:27;14.30;;;5.67;;
67090;SDS011;54007;55.818;49.058;2023-06-22T15:34:53;12.20;;;5.53;;
67090;SDS011;54007;55.818;49.058;2023-06-22T15:37:19;15.68;;;6.03;;
67090;SDS011;54007;55.818;49.058;2023-06-22T15:39:44;13.93;;;5.90;;
67090;SDS011;54007;55.818;49.058;2023-06-22T15:42:10;11.75;;;5.45;;
67090;SDS011;54007;55.818;49.058;2023-06-22T15:44:36;19.73;;;9.20;;
67090;SDS011;54007;55.818;49.058;2023-06-22T15:47:02;11.38;;;4.35;;
67090;SDS011;54007;55.818;49.058;2023-06-22T15:49:28;12.93;;;4.70;;
67090;SDS011;54007;55.818;49.058;2023-06-22T15:51:53;13.60;;;5.00;;
67090;SDS011;54007;55.818;49.058;2023-06-22T15:54:19;16.93;;;6.83;;
67090;SDS011;54007;55.818;49.058;2023-06-22T15:56:45;13.83;;;5.40;;
67090;SDS011;54007;55.818;49.058;2023-06-22T15:59:11;17.00;;;6.10;;
67090;SDS011;54007;55.818;49.058;2023-06-22T16:01:44;12.10;;;5.62;;
67090;SDS011;54007;55.818;49.058;2023-06-22T16:04:09;12.03;;;4.97;;
67090;SDS011;54007;55.818;49.058;2023-06-22T16:06:38;9.40;;;4.80;;
67090;SDS011;54007;55.818;49.058;2023-06-22T16:09:01;14.13;;;5.90;;
67090;SDS011;54007;55.818;49.058;2023-06-22T16:11:27;14.78;;;5.30;;
67090;SDS011;54007;55.818;49.058;2023-06-22T16:13:53;11.70;;;5.30;;
67090;SDS011;54007;55.818;49.058;2023-06-22T16:16:19;11.70;;;4.70;;
67090;SDS011;54007;55.818;49.058;2023-06-22T16:18:45;12.85;;;5.22;;
67090;SDS011;54007;55.818;49.058;2023-06-22T16:21:11;12.50;;;4.53;;
67090;SDS011;54007;55.818;49.058;2023-06-22T16:23:36;13.88;;;5.25;;
67090;SDS011;54007;55.818;49.058;2023-06-22T16:26:02;13.70;;;5.35;;
67090;SDS011;54007;55.818;49.058;2023-06-22T16:28:28;14.93;;;4.87;;
67090;SDS011;54007;55.818;49.058;2023-06-22T16:30:54;10.68;;;4.50;;
67090;SDS011;54007;55.818;49.058;2023-06-22T16:33:20;13.32;;;4.70;;
67090;SDS011;54007;55.818;49.058;2023-06-22T16:35:46;10.67;;;4.80;;
67090;SDS011;54007;55.818;49.058;2023-06-22T16:38:12;11.48;;;4.85;;
67090;SDS011;54007;55.818;49.058;2023-06-22T16:40:38;15.78;;;5.85;;
67090;SDS011;54007;55.818;49.058;2023-06-22T16:43:04;15.35;;;5.30;;
67090;SDS011;54007;55.818;49.058;2023-06-22T16:45:30;13.80;;;5.33;;
67090;SDS011;54007;55.818;49.058;2023-06-22T16:47:56;27.17;;;5.55;;
67090;SDS011;54007;55.818;49.058;2023-06-22T16:50:21;17.05;;;5.58;;
67090;SDS011;54007;55.818;49.058;2023-06-22T16:52:48;13.78;;;5.55;;
67090;SDS011;54007;55.818;49.058;2023-06-22T16:55:13;14.75;;;5.58;;
67090;SDS011;54007;55.818;49.058;2023-06-22T16:57:39;13.60;;;6.72;;
67090;SDS011;54007;55.818;49.058;2023-06-22T17:00:05;21.62;;;7.90;;
67090;SDS011;54007;55.818;49.058;2023-06-22T17:02:31;26.97;;;11.05;;
67090;SDS011;54007;55.818;49.058;2023-06-22T17:04:57;49.42;;;18.00;;
67090;SDS011;54007;55.818;49.058;2023-06-22T17:07:25;38.17;;;17.30;;
67090;SDS011;54007;55.818;49.058;2023-06-22T17:09:49;44.42;;;17.57;;
67090;SDS011;54007;55.818;49.058;2023-06-22T17:12:14;35.60;;;13.13;;
67090;SDS011;54007;55.818;49.058;2023-06-22T17:14:44;29.23;;;10.58;;
67090;SDS011;54007;55.818;49.058;2023-06-22T17:17:15;25.10;;;9.35;;
67090;SDS011;54007;55.818;49.058;2023-06-22T17:19:45;25.17;;;9.53;;
67090;SDS011;54007;55.818;49.058;2023-06-22T17:22:11;24.13;;;9.13;;
67090;SDS011;54007;55.818;49.058;2023-06-22T17:24:37;20.85;;;9.55;;
67090;SDS011;54007;55.818;49.058;2023-06-22T17:27:03;38.93;;;9.80;;
67090;SDS011;54007;55.818;49.058;2023-06-22T17:29:29;33.83;;;10.00;;
67090;SDS011;54007;55.818;49.058;2023-06-22T17:31:57;20.35;;;7.47;;
67090;SDS011;54007;55.818;49.058;2023-06-22T17:34:25;20.62;;;6.70;;
67090;SDS011;54007;55.818;49.058;2023-06-22T17:36:49;29.00;;;8.50;;
67090;SDS011;54007;55.818;49.058;2023-06-22T17:39:17;21.15;;;8.05;;
67090;SDS011;54007;55.818;49.058;2023-06-22T17:41:45;21.10;;;8.65;;
67090;SDS011;54007;55.818;49.058;2023-06-22T17:44:10;19.57;;;8.03;;
67090;SDS011;54007;55.818;49.058;2023-06-22T17:46:37;17.92;;;8.20;;
67090;SDS011;54007;55.818;49.058;2023-06-22T17:49:04;21.00;;;6.97;;
67090;SDS011;54007;55.818;49.058;2023-06-22T17:51:28;23.77;;;7.97;;
67090;SDS011;54007;55.818;49.058;2023-06-22T17:53:55;18.80;;;7.28;;
67090;SDS011;54007;55.818;49.058;2023-06-22T17:56:19;21.37;;;7.60;;
67090;SDS011;54007;55.818;49.058;2023-06-22T17:58:52;19.15;;;7.80;;
67090;SDS011;54007;55.818;49.058;2023-06-22T18:01:38;20.17;;;6.75;;
67090;SDS011;54007;55.818;49.058;2023-06-22T18:03:46;18.40;;;7.37;;
67090;SDS011;54007;55.818;49.058;2023-06-22T18:06:12;17.42;;;6.80;;
67090;SDS011;54007;55.818;49.058;2023-06-22T18:08:38;17.32;;;7.28;;
67090;SDS011;54007;55.818;49.058;2023-06-22T18:11:03;17.67;;;6.93;;
67090;SDS011;54007;55.818;49.058;2023-06-22T18:13:29;18.17;;;8.00;;
67090;SDS011;54007;55.818;49.058;2023-06-22T18:15:58;15.80;;;7.05;;
67090;SDS011;54007;55.818;49.058;2023-06-22T18:18:21;17.27;;;7.60;;
67090;SDS011;54007;55.818;49.058;2023-06-22T18:20:47;19.02;;;7.60;;
67090;SDS011;54007;55.818;49.058;2023-06-22T18:23:13;20.08;;;7.70;;
67090;SDS011;54007;55.818;49.058;2023-06-22T18:25:39;19.82;;;7.87;;
67090;SDS011;54007;55.818;49.058;2023-06-22T18:28:05;16.17;;;8.38;;
67090;SDS011;54007;55.818;49.058;2023-06-22T18:30:31;18.52;;;8.28;;
67090;SDS011;54007;55.818;49.058;2023-06-22T18:32:57;17.27;;;8.03;;
67090;SDS011;54007;55.818;49.058;2023-06-22T18:35:23;22.42;;;8.33;;
67090;SDS011;54007;55.818;49.058;2023-06-22T18:37:49;21.23;;;8.25;;
67090;SDS011;54007;55.818;49.058;2023-06-22T18:40:15;25.02;;;7.42;;
67090;SDS011;54007;55.818;49.058;2023-06-22T18:42:46;32.43;;;9.53;;
67090;SDS011;54007;55.818;49.058;2023-06-22T21:44:52;15.68;;;7.12;;
67090;SDS011;54007;55.818;49.058;2023-06-22T21:47:24;12.93;;;7.17;;
67090;SDS011;54007;55.818;49.058;2023-06-22T21:49:50;17.75;;;7.62;;
67090;SDS011;54007;55.818;49.058;2023-06-22T21:52:16;13.83;;;7.00;;
67090;SDS011;54007;55.818;49.058;2023-06-22T21:54:42;14.47;;;7.25;;
67090;SDS011;54007;55.818;49.058;2023-06-22T21:57:08;13.55;;;7.25;;
67090;SDS011;54007;55.818;49.058;2023-06-22T21:59:34;14.57;;;7.60;;
67090;SDS011;54007;55.818;49.058;2023-06-22T22:02:00;15.75;;;7.95;;
67090;SDS011;54007;55.818;49.058;2023-06-22T22:04:25;15.68;;;7.80;;
67090;SDS011;54007;55.818;49.058;2023-06-22T22:06:51;13.57;;;7.43;;
67090;SDS011;54007;55.818;49.058;2023-06-22T22:09:17;14.68;;;7.90;;
67090;SDS011;54007;55.818;49.058;2023-06-22T22:11:43;15.60;;;8.07;;
67090;SDS011;54007;55.818;49.058;2023-06-22T22:14:09;14.23;;;7.95;;
67090;SDS011;54007;55.818;49.058;2023-06-22T22:16:34;13.95;;;7.83;;
67090;SDS011;54007;55.818;49.058;2023-06-22T22:19:00;13.57;;;7.13;;
67090;SDS011;54007;55.818;49.058;2023-06-22T22:21:26;15.75;;;8.45;;
67090;SDS011;54007;55.818;49.058;2023-06-22T22:23:52;14.43;;;8.40;;
67090;SDS011;54007;55.818;49.058;2023-06-22T22:26:18;13.65;;;7.67;;
67090;SDS011;54007;55.818;49.058;2023-06-22T22:28:44;13.83;;;7.67;;
67090;SDS011;54007;55.818;49.058;2023-06-22T22:31:19;19.42;;;8.55;;
67090;SDS011;54007;55.818;49.058;2023-06-22T22:33:42;15.25;;;8.60;;
67090;SDS011;54007;55.818;49.058;2023-06-22T22:36:11;14.93;;;7.95;;
67090;SDS011;54007;55.818;49.058;2023-06-22T22:38:33;15.55;;;7.87;;
67090;SDS011;54007;55.818;49.058;2023-06-22T22:40:59;17.80;;;8.40;;
67090;SDS011;54007;55.818;49.058;2023-06-22T22:43:25;14.15;;;7.87;;
67090;SDS011;54007;55.818;49.058;2023-06-22T22:45:51;17.50;;;8.73;;
67090;SDS011;54007;55.818;49.058;2023-06-22T22:48:17;14.68;;;8.15;;
67090;SDS011;54007;55.818;49.058;2023-06-22T22:50:43;15.68;;;7.72;;
67090;SDS011;54007;55.818;49.058;2023-06-22T22:53:09;16.65;;;8.65;;
67090;SDS011;54007;55.818;49.058;2023-06-22T22:55:35;14.87;;;8.45;;
67090;SDS011;54007;55.818;49.058;2023-06-22T22:58:03;15.30;;;8.53;;
67090;SDS011;54007;55.818;49.058;2023-06-22T23:00:31;15.50;;;8.43;;
67090;SDS011;54007;55.818;49.058;2023-06-22T23:02:59;14.25;;;8.35;;
67090;SDS011;54007;55.818;49.058;2023-06-22T23:05:31;14.98;;;8.30;;
67090;SDS011;54007;55.818;49.058;2023-06-22T23:07:57;18.37;;;8.65;;
67090;SDS011;54007;55.818;49.058;2023-06-22T23:10:23;16.63;;;8.40;;
67090;SDS011;54007;55.818;49.058;2023-06-22T23:12:49;15.25;;;8.70;;
67090;SDS011;54007;55.818;49.058;2023-06-22T23:15:15;17.93;;;8.97;;
67090;SDS011;54007;55.818;49.058;2023-06-22T23:17:41;17.92;;;9.55;;
67090;SDS011;54007;55.818;49.058;2023-06-22T23:20:07;17.10;;;9.23;;
67090;SDS011;54007;55.818;49.058;2023-06-22T23:22:36;16.55;;;8.83;;
67090;SDS011;54007;55.818;49.058;2023-06-22T23:25:01;17.53;;;8.87;;
